South Fork, Missouri
Current Conditions -  °F | °C
As of 4:53 AM on Friday 24 Oct 2014 (Local Time) from KUNO Reporting Station
Few Clouds Few Clouds  
Wind Chill: 45°   Ceiling: Unl
Heat Index: 45°   Visibility: 9mi
Dew Point: 43°   Wind: 0mph
Humidity: 93%   Direction: NA
Pressure: 30.13"   Gusts: NA
Location:  36.63°N, 91.96°W
Report Text: KUNO 240953Z AUTO 00000KT 9SM FEW021 07/06 A3013 RMK AO2 SLP202 T00720061
Loading
Personal Weather Stations






























Interactive Weather Map
Tropical Storm Tracking
New forecast layout! Learn more

10-Day Weather Forecast

Advertisements
Track Severe Weather on mobile